Time;durP1;ratioP1;P1;durP2;ratioP2;P2;SDS_P1;SDS_P2;PMS_P1;PMS_P2;Temp;Humidity;BMP_temperature;BMP_pressure;BME280_temperature;BME280_humidity;BME280_pressure;Samples;Min_cycle;Max_cycle;Signal;HPM_P1;HPM_P2
2021/12/23 00:00:58;;;;;;;33.73;22.30;;;3.30;99.90;;;;;;5037971;28;20384;-73
2021/12/23 00:03:24;;;;;;;34.53;21.37;;;3.30;99.90;;;;;;5055800;28;20517;-72
2021/12/23 00:05:52;;;;;;;39.87;22.03;;;3.30;99.90;;;;;;5060358;28;20028;-72
2021/12/23 00:08:18;;;;;;;34.53;22.33;;;3.20;99.90;;;;;;5075782;28;20379;-73
2021/12/23 00:10:44;;;;;;;33.67;20.00;;;3.20;99.90;;;;;;5075793;28;20032;-73
2021/12/23 00:13:10;;;;;;;34.43;20.47;;;3.20;99.90;;;;;;5057583;28;20021;-73
2021/12/23 00:18:15;;;;;;;32.63;20.80;;;3.20;99.90;;;;;;5075456;28;20029;-73
2021/12/23 00:23:27;;;;;;;35.20;21.33;;;3.20;99.90;;;;;;5055932;28;20060;-73
2021/12/23 00:25:57;;;;;;;34.37;20.90;;;3.20;99.90;;;;;;5056179;28;20017;-73
2021/12/23 00:28:23;;;;;;;31.80;19.63;;;3.20;99.90;;;;;;5054630;28;20029;-73
2021/12/23 00:30:49;;;;;;;34.70;21.63;;;3.20;99.90;;;;;;5055658;28;20513;-73
2021/12/23 00:33:15;;;;;;;33.37;21.30;;;3.10;99.90;;;;;;5055241;28;20036;-73
2021/12/23 00:35:40;;;;;;;33.00;20.53;;;3.10;99.90;;;;;;5055518;28;20029;-72
2021/12/23 00:38:15;;;;;;;38.10;21.60;;;3.10;99.90;;;;;;5055416;28;20448;-73
2021/12/23 00:40:41;;;;;;;39.40;22.87;;;3.10;99.90;;;;;;5053970;28;20052;-73
2021/12/23 00:43:07;;;;;;;39.37;21.63;;;3.10;99.90;;;;;;5055121;28;20414;-72
2021/12/23 00:45:33;;;;;;;35.47;20.43;;;3.20;99.90;;;;;;5053817;28;20115;-73
2021/12/23 00:47:59;;;;;;;34.73;22.17;;;3.10;99.90;;;;;;5053598;28;20045;-73
2021/12/23 00:50:24;;;;;;;30.33;19.97;;;3.10;99.90;;;;;;5054915;28;20021;-72
2021/12/23 00:52:57;;;;;;;33.33;20.10;;;3.10;99.90;;;;;;5055171;28;20052;-72
2021/12/23 00:55:23;;;;;;;34.83;21.13;;;3.10;99.90;;;;;;5054929;28;20066;-73
2021/12/23 00:57:49;;;;;;;35.47;20.40;;;3.10;99.90;;;;;;5054974;28;20021;-73
2021/12/23 01:00:18;;;;;;;36.60;20.93;;;3.00;99.90;;;;;;5055006;28;20447;-73
2021/12/23 01:02:45;;;;;;;34.43;20.83;;;3.00;99.90;;;;;;5053809;28;20017;-73
2021/12/23 01:05:14;;;;;;;33.90;19.87;;;3.10;99.90;;;;;;5054501;28;20052;-73
2021/12/23 01:07:39;;;;;;;33.13;19.17;;;3.10;99.90;;;;;;5054533;28;20033;-73
2021/12/23 01:10:06;;;;;;;32.27;19.50;;;3.10;99.90;;;;;;5054567;28;20147;-73
2021/12/23 01:12:40;;;;;;;30.97;18.70;;;3.10;99.90;;;;;;5054565;28;20013;-74
2021/12/23 01:15:14;;;;;;;30.53;19.40;;;3.10;99.90;;;;;;5054571;28;20378;-73
2021/12/23 01:17:55;;;;;;;33.63;19.33;;;3.10;99.90;;;;;;5054557;28;20466;-73
2021/12/23 01:20:31;;;;;;;32.77;19.93;;;3.10;99.90;;;;;;5054192;28;20150;-73
2021/12/23 01:23:09;;;;;;;32.50;20.00;;;3.00;99.90;;;;;;5046820;28;20037;-73
2021/12/23 01:25:38;;;;;;;29.57;18.77;;;3.10;99.90;;;;;;5034692;28;20057;-73
2021/12/23 01:28:06;;;;;;;31.47;18.87;;;3.10;99.90;;;;;;5034430;28;20037;-73
2021/12/23 01:30:33;;;;;;;32.13;19.70;;;3.10;99.90;;;;;;5034296;28;20072;-73
2021/12/23 01:32:59;;;;;;;33.20;18.80;;;3.10;99.90;;;;;;5034484;28;20114;-73
2021/12/23 01:35:26;;;;;;;33.50;19.03;;;3.10;99.90;;;;;;5035269;28;20108;-73
2021/12/23 01:37:53;;;;;;;30.43;18.33;;;3.10;99.90;;;;;;5053936;28;20642;-73
2021/12/23 01:40:20;;;;;;;32.77;19.30;;;3.10;99.90;;;;;;5054250;28;20128;-73
2021/12/23 01:42:46;;;;;;;30.50;17.73;;;3.10;99.90;;;;;;5054012;28;20060;-73
2021/12/23 01:45:19;;;;;;;30.77;18.30;;;3.10;99.90;;;;;;5052674;28;20505;-73
2021/12/23 01:47:46;;;;;;;28.17;17.87;;;3.10;99.90;;;;;;5053934;28;20025;-73
2021/12/23 01:50:15;;;;;;;28.77;17.93;;;3.20;99.90;;;;;;5052532;28;20021;-73
2021/12/23 01:52:41;;;;;;;27.30;17.37;;;3.10;99.90;;;;;;5053708;28;20024;-72
2021/12/23 01:55:09;;;;;;;29.93;18.10;;;3.10;99.90;;;;;;5053623;28;20021;-72
2021/12/23 01:57:36;;;;;;;30.60;17.97;;;3.20;99.90;;;;;;5053463;28;20021;-73
2021/12/23 02:00:11;;;;;;;27.17;17.53;;;3.20;99.90;;;;;;5051886;28;20021;-73
2021/12/23 02:02:37;;;;;;;28.57;16.60;;;3.20;99.90;;;;;;5053514;28;20036;-72
2021/12/23 02:05:03;;;;;;;28.87;17.73;;;3.10;99.90;;;;;;5052323;28;20032;-72
2021/12/23 02:07:30;;;;;;;26.17;17.23;;;3.10;99.90;;;;;;5053449;28;20052;-72
2021/12/23 02:09:57;;;;;;;30.27;17.63;;;3.10;99.90;;;;;;5053699;28;20031;-72
2021/12/23 02:12:23;;;;;;;28.30;17.90;;;3.10;99.90;;;;;;5051689;28;20025;-73
2021/12/23 02:14:49;;;;;;;28.97;17.63;;;3.10;99.90;;;;;;5051784;28;20029;-73
2021/12/23 02:17:15;;;;;;;26.87;17.23;;;3.00;99.90;;;;;;5053485;28;20087;-73
2021/12/23 02:19:41;;;;;;;30.53;18.10;;;3.00;99.90;;;;;;5053203;28;20414;-73
2021/12/23 02:22:06;;;;;;;30.93;18.33;;;3.00;99.90;;;;;;5053382;28;20033;-73
2021/12/23 02:24:32;;;;;;;27.33;17.60;;;2.90;99.90;;;;;;5053102;28;20029;-73
2021/12/23 02:26:58;;;;;;;28.57;17.83;;;2.80;99.90;;;;;;5053282;28;20057;-73
2021/12/23 02:29:23;;;;;;;27.43;16.87;;;2.80;99.90;;;;;;5051709;28;20031;-72
2021/12/23 02:31:51;;;;;;;31.73;19.17;;;2.70;99.90;;;;;;5051680;28;20025;-73
2021/12/23 02:34:18;;;;;;;31.73;19.37;;;2.70;99.90;;;;;;5053229;28;20440;-72
2021/12/23 02:36:52;;;;;;;31.40;19.53;;;2.70;99.90;;;;;;5053104;28;20116;-72
2021/12/23 02:39:19;;;;;;;31.27;19.13;;;2.70;99.90;;;;;;5052953;28;20078;-73
2021/12/23 02:41:45;;;;;;;30.83;19.30;;;2.80;99.90;;;;;;5053051;28;20059;-72
2021/12/23 02:44:12;;;;;;;30.40;17.93;;;2.80;99.90;;;;;;5051629;28;20115;-73
2021/12/23 02:46:38;;;;;;;27.87;17.17;;;2.80;99.90;;;;;;5051566;28;20029;-73
2021/12/23 02:49:03;;;;;;;30.63;17.43;;;2.80;99.90;;;;;;5052999;28;20035;-73
2021/12/23 02:51:29;;;;;;;25.67;17.33;;;2.80;99.90;;;;;;5052932;28;20108;-73
2021/12/23 02:53:55;;;;;;;27.77;17.40;;;2.80;99.90;;;;;;5052827;28;20028;-72
2021/12/23 02:56:21;;;;;;;28.87;17.87;;;2.70;99.90;;;;;;5052896;28;20029;-72
2021/12/23 02:58:47;;;;;;;30.57;18.60;;;2.60;99.90;;;;;;5051311;28;20024;-72
2021/12/23 03:01:15;;;;;;;28.90;17.57;;;2.60;99.90;;;;;;5052832;28;20348;-73
2021/12/23 03:03:42;;;;;;;30.30;17.97;;;2.50;99.90;;;;;;5052727;28;20024;-72
2021/12/23 03:06:09;;;;;;;28.93;18.40;;;2.40;99.90;;;;;;5051061;28;20120;-72
2021/12/23 03:08:42;;;;;;;36.27;19.10;;;2.40;99.90;;;;;;5051895;28;20040;-73
2021/12/23 03:11:12;;;;;;;26.53;17.80;;;2.40;99.90;;;;;;5052662;28;20028;-72
2021/12/23 03:13:38;;;;;;;37.27;20.60;;;2.30;99.90;;;;;;5052685;28;20013;-72
2021/12/23 03:16:05;;;;;;;34.90;21.07;;;2.20;99.90;;;;;;5052534;28;20017;-72
2021/12/23 03:18:32;;;;;;;35.30;21.50;;;2.00;99.90;;;;;;5052308;28;20024;-72
2021/12/23 03:20:59;;;;;;;33.47;20.83;;;2.10;99.90;;;;;;5052444;28;20532;-72
2021/12/23 03:23:25;;;;;;;35.23;19.90;;;2.10;99.90;;;;;;5052494;28;20067;-72
2021/12/23 03:25:51;;;;;;;36.37;20.93;;;2.10;99.90;;;;;;5053176;28;20021;-72
2021/12/23 03:28:17;;;;;;;33.70;20.30;;;2.10;99.90;;;;;;5056702;28;20021;-72
2021/12/23 03:30:44;;;;;;;33.90;20.47;;;2.10;99.90;;;;;;5053185;28;20021;-72
2021/12/23 03:33:09;;;;;;;30.97;20.13;;;2.00;99.90;;;;;;5056643;28;20565;-72
2021/12/23 03:35:36;;;;;;;34.80;19.97;;;1.90;99.90;;;;;;5056576;28;20172;-73
2021/12/23 03:38:02;;;;;;;36.07;21.10;;;2.00;99.90;;;;;;5055395;28;20021;-73
2021/12/23 03:40:28;;;;;;;39.17;21.80;;;2.00;99.90;;;;;;5134478;22;20056;-80
2021/12/23 03:42:54;;;;;;;33.30;19.93;;;1.90;99.90;;;;;;5038444;28;20025;-73
2021/12/23 03:45:20;;;;;;;35.53;20.37;;;2.00;99.90;;;;;;5056295;28;20424;-73
2021/12/23 03:47:48;;;;;;;29.67;18.67;;;2.10;99.90;;;;;;5056327;28;20033;-73
2021/12/23 03:50:19;;;;;;;33.70;20.03;;;2.10;99.90;;;;;;5056288;28;20028;-73
2021/12/23 03:52:46;;;;;;;29.87;19.13;;;2.10;99.90;;;;;;5056047;28;20025;-73
2021/12/23 03:55:12;;;;;;;32.90;20.27;;;2.00;99.90;;;;;;5056280;28;20096;-72
2021/12/23 03:57:39;;;;;;;34.83;21.13;;;2.00;99.90;;;;;;5055949;28;20028;-73
2021/12/23 04:00:07;;;;;;;36.07;21.80;;;1.90;99.90;;;;;;5056193;28;20024;-73
2021/12/23 04:02:33;;;;;;;34.67;20.80;;;1.80;99.90;;;;;;5038044;28;20482;-74
2021/12/23 04:04:59;;;;;;;36.27;21.07;;;1.80;99.90;;;;;;5055723;28;20059;-73
2021/12/23 04:07:25;;;;;;;34.03;21.37;;;1.80;99.90;;;;;;5073279;28;20033;-73
2021/12/23 04:09:51;;;;;;;37.47;21.87;;;1.90;99.90;;;;;;5069782;28;20095;-73
2021/12/23 04:12:16;;;;;;;38.03;20.97;;;1.90;99.90;;;;;;5055188;28;20103;-73
2021/12/23 04:14:42;;;;;;;33.83;20.87;;;1.90;99.90;;;;;;5055787;28;20075;-73
2021/12/23 04:17:08;;;;;;;39.20;21.73;;;1.90;99.90;;;;;;5055648;28;20065;-72
2021/12/23 04:19:34;;;;;;;35.37;20.90;;;1.90;99.90;;;;;;5055352;28;20028;-73
2021/12/23 04:22:00;;;;;;;38.67;22.10;;;1.90;99.90;;;;;;5037417;28;20090;-73
2021/12/23 04:24:28;;;;;;;38.87;22.40;;;1.80;99.90;;;;;;5037463;28;20029;-72
2021/12/23 04:26:54;;;;;;;38.43;21.80;;;1.90;99.90;;;;;;5037363;28;20409;-73
2021/12/23 04:29:19;;;;;;;35.10;20.80;;;1.90;99.90;;;;;;5037115;28;20112;-72
2021/12/23 04:31:45;;;;;;;37.67;22.10;;;1.90;99.90;;;;;;5055280;28;20060;-73
2021/12/23 04:34:12;;;;;;;40.20;22.23;;;1.90;99.90;;;;;;5055317;28;20021;-73
2021/12/23 04:36:37;;;;;;;35.20;20.90;;;1.90;99.90;;;;;;5066376;28;20021;-73
2021/12/23 04:39:04;;;;;;;33.80;21.33;;;1.80;99.90;;;;;;5062303;28;20659;-73
2021/12/23 04:41:31;;;;;;;37.07;21.60;;;1.90;99.90;;;;;;5055329;28;20541;-73
2021/12/23 04:43:58;;;;;;;39.57;22.17;;;1.90;99.90;;;;;;5055277;28;20020;-73
2021/12/23 04:46:24;;;;;;;36.73;21.07;;;1.90;99.90;;;;;;5055019;28;20474;-73
2021/12/23 04:48:51;;;;;;;39.77;22.23;;;1.90;99.90;;;;;;5055175;28;20504;-73
2021/12/23 04:51:17;;;;;;;35.33;22.07;;;1.90;99.90;;;;;;5055140;28;20025;-72
2021/12/23 04:53:44;;;;;;;34.57;20.57;;;1.90;99.90;;;;;;5055106;28;20017;-73
2021/12/23 04:56:11;;;;;;;36.10;20.30;;;1.80;99.90;;;;;;5054925;28;20027;-73
2021/12/23 04:58:37;;;;;;;33.13;21.37;;;1.80;99.90;;;;;;5055023;28;20017;-73
2021/12/23 05:01:03;;;;;;;33.53;19.70;;;1.80;99.90;;;;;;5054954;28;20429;-73
2021/12/23 05:03:29;;;;;;;36.17;21.03;;;1.80;99.90;;;;;;5054913;28;20047;-73
2021/12/23 05:05:55;;;;;;;36.07;20.73;;;1.80;99.90;;;;;;5060017;28;20021;-73
2021/12/23 05:08:21;;;;;;;36.90;20.70;;;1.90;99.90;;;;;;5061407;28;20348;-73
2021/12/23 05:10:47;;;;;;;35.27;20.27;;;1.80;99.90;;;;;;5036800;28;20088;-72
2021/12/23 05:13:13;;;;;;;35.57;22.50;;;1.90;99.90;;;;;;5054815;28;20017;-73
2021/12/23 05:15:39;;;;;;;36.27;22.33;;;1.80;99.90;;;;;;5054751;28;20074;-73
2021/12/23 05:18:06;;;;;;;38.00;22.80;;;1.80;99.90;;;;;;5035283;28;20033;-73
2021/12/23 05:20:32;;;;;;;39.73;22.57;;;1.80;99.90;;;;;;5035323;28;20136;-73
2021/12/23 05:22:58;;;;;;;38.63;23.30;;;1.90;99.90;;;;;;5053174;28;20021;-72
2021/12/23 05:25:24;;;;;;;40.53;23.73;;;1.90;99.90;;;;;;5035270;28;20029;-73
2021/12/23 05:27:52;;;;;;;37.23;22.73;;;1.90;99.90;;;;;;5052727;28;20711;-72
2021/12/23 05:30:19;;;;;;;39.47;23.53;;;1.90;99.90;;;;;;5043627;28;20024;-73
2021/12/23 05:32:45;;;;;;;39.00;22.20;;;1.80;99.90;;;;;;5016316;28;20612;-73
2021/12/23 05:35:13;;;;;;;40.27;22.73;;;1.80;99.90;;;;;;5034859;28;20057;-81
2021/12/23 05:37:40;;;;;;;41.20;23.43;;;1.80;99.90;;;;;;5073478;28;20035;-81
2021/12/23 05:40:11;;;;;;;37.97;23.47;;;1.80;99.90;;;;;;5074308;28;20139;-80
2021/12/23 05:42:37;;;;;;;40.53;22.57;;;1.90;99.90;;;;;;5074418;28;20024;-81
2021/12/23 05:45:04;;;;;;;40.60;21.90;;;1.90;99.90;;;;;;5074211;28;20028;-80
2021/12/23 05:47:29;;;;;;;36.13;20.97;;;1.80;99.90;;;;;;5074091;28;20028;-81
2021/12/23 05:49:55;;;;;;;39.57;22.27;;;1.90;99.90;;;;;;5073764;28;20017;-81
2021/12/23 05:52:21;;;;;;;35.33;20.30;;;1.90;99.90;;;;;;5074235;28;20029;-81
2021/12/23 05:54:47;;;;;;;34.53;21.27;;;1.90;99.90;;;;;;5056169;28;20440;-80
2021/12/23 05:57:13;;;;;;;38.30;21.47;;;1.80;99.90;;;;;;5069037;28;20051;-80
2021/12/23 05:59:38;;;;;;;37.73;20.93;;;1.80;99.90;;;;;;5053770;28;20056;-72
2021/12/23 06:02:05;;;;;;;35.10;20.60;;;1.70;99.90;;;;;;5053965;28;20048;-73
2021/12/23 06:04:32;;;;;;;35.37;21.67;;;1.70;99.90;;;;;;5053858;28;20031;-72
2021/12/23 06:06:58;;;;;;;36.63;20.60;;;1.60;99.90;;;;;;5064824;28;20104;-73
2021/12/23 06:09:24;;;;;;;38.57;21.87;;;1.60;99.90;;;;;;5053769;28;20395;-73
2021/12/23 06:11:50;;;;;;;38.87;22.27;;;1.60;99.90;;;;;;5053590;28;20075;-73
2021/12/23 06:14:16;;;;;;;37.77;20.17;;;1.70;99.90;;;;;;5053560;28;20057;-73
2021/12/23 06:16:43;;;;;;;35.63;20.80;;;1.70;99.90;;;;;;5053712;28;20458;-73
2021/12/23 06:19:08;;;;;;;33.90;20.47;;;1.70;99.90;;;;;;5034892;28;20028;-73
2021/12/23 06:21:34;;;;;;;34.33;19.80;;;1.80;99.90;;;;;;5035473;28;20406;-73
2021/12/23 06:24:03;;;;;;;39.23;20.77;;;1.80;99.90;;;;;;5053360;28;20060;-73
2021/12/23 06:26:29;;;;;;;33.27;19.93;;;1.80;99.90;;;;;;5053293;28;20021;-73
2021/12/23 06:28:54;;;;;;;35.63;19.50;;;1.80;99.90;;;;;;5053020;28;20017;-73
2021/12/23 06:31:20;;;;;;;33.13;19.57;;;1.70;99.90;;;;;;5053359;28;20500;-73
2021/12/23 06:33:46;;;;;;;33.73;19.90;;;1.70;99.90;;;;;;5053186;28;20067;-73
2021/12/23 06:36:13;;;;;;;30.97;19.20;;;1.70;99.90;;;;;;5060484;28;20032;-73
2021/12/23 06:38:42;;;;;;;33.03;20.57;;;1.70;99.90;;;;;;5054905;28;20017;-73
2021/12/23 06:41:09;;;;;;;36.40;20.27;;;1.70;99.90;;;;;;5072805;28;20049;-73
2021/12/23 06:43:35;;;;;;;37.77;21.00;;;1.60;99.90;;;;;;5073014;28;20593;-73
2021/12/23 06:46:02;;;;;;;31.10;19.50;;;1.60;99.90;;;;;;5073068;28;20056;-73
2021/12/23 06:48:29;;;;;;;33.97;20.13;;;1.70;99.90;;;;;;5072841;28;20028;-73
2021/12/23 06:50:56;;;;;;;33.90;18.67;;;1.70;99.90;;;;;;5072756;28;20028;-73
2021/12/23 06:53:23;;;;;;;33.33;19.57;;;1.70;99.90;;;;;;5073445;28;20024;-80
2021/12/23 06:55:51;;;;;;;30.93;17.93;;;1.70;99.90;;;;;;5072898;28;20017;-73
2021/12/23 06:58:17;;;;;;;33.77;18.97;;;1.70;99.90;;;;;;5072917;28;20028;-73
2021/12/23 07:00:43;;;;;;;35.10;20.13;;;1.70;99.90;;;;;;5072091;28;20028;-73
2021/12/23 07:03:09;;;;;;;34.17;18.97;;;1.60;99.90;;;;;;5059659;28;20026;-73
2021/12/23 07:05:35;;;;;;;37.40;21.73;;;1.60;99.90;;;;;;5024511;28;20434;-73
2021/12/23 07:08:13;;;;;;;29.43;18.67;;;1.60;99.90;;;;;;5024329;28;20048;-73
2021/12/23 07:10:39;;;;;;;31.00;19.13;;;1.60;99.90;;;;;;5027161;28;20375;-73
2021/12/23 07:13:05;;;;;;;35.83;21.37;;;1.50;99.90;;;;;;5052789;28;20020;-73
2021/12/23 07:15:32;;;;;;;36.50;21.93;;;1.50;99.90;;;;;;5034946;28;20120;-73
2021/12/23 07:18:00;;;;;;;38.23;21.10;;;1.60;99.90;;;;;;5051199;28;20083;-73
2021/12/23 07:20:28;;;;;;;34.33;22.10;;;1.50;99.90;;;;;;5040159;28;20021;-73
2021/12/23 07:22:54;;;;;;;36.60;21.47;;;1.50;99.90;;;;;;5034661;28;20105;-73
2021/12/23 07:25:20;;;;;;;38.93;21.83;;;1.50;99.90;;;;;;5014539;28;20113;-73
2021/12/23 07:27:46;;;;;;;39.80;22.17;;;1.50;99.90;;;;;;5014239;28;20055;-73
2021/12/23 07:30:16;;;;;;;39.70;23.07;;;1.50;99.90;;;;;;5014143;28;20025;-73
2021/12/23 07:32:42;;;;;;;38.73;23.17;;;1.50;99.90;;;;;;5039011;28;20052;-73
2021/12/23 07:35:09;;;;;;;41.20;23.07;;;1.50;99.90;;;;;;5036004;28;20018;-80
2021/12/23 07:37:36;;;;;;;38.67;23.00;;;1.60;99.90;;;;;;5043005;28;20487;-80
2021/12/23 07:40:03;;;;;;;42.37;23.93;;;1.60;99.90;;;;;;5014482;28;20514;-80
2021/12/23 07:42:31;;;;;;;40.17;22.87;;;1.70;99.90;;;;;;5014495;28;20056;-80
2021/12/23 07:44:57;;;;;;;42.47;23.27;;;1.70;99.90;;;;;;5019692;28;20037;-80
2021/12/23 07:47:23;;;;;;;39.30;23.87;;;1.70;99.90;;;;;;5031715;28;20029;-79
2021/12/23 07:49:49;;;;;;;42.93;23.07;;;1.80;99.90;;;;;;5027728;28;20479;-80
2021/12/23 07:52:15;;;;;;;43.80;24.37;;;1.80;99.90;;;;;;5035729;28;20071;-80
2021/12/23 07:54:41;;;;;;;42.87;25.07;;;1.90;99.90;;;;;;5014658;28;20024;-79
2021/12/23 07:57:07;;;;;;;45.83;26.40;;;1.90;99.90;;;;;;5034506;28;20033;-80
2021/12/23 07:59:33;;;;;;;45.33;25.17;;;2.00;99.90;;;;;;5036551;28;20445;-79
2021/12/23 08:01:59;;;;;;;48.37;26.23;;;2.00;99.90;;;;;;5027518;28;20037;-80
2021/12/23 08:04:25;;;;;;;40.43;23.70;;;2.10;99.90;;;;;;5039325;28;20113;-79
2021/12/23 08:06:55;;;;;;;50.57;26.47;;;2.10;99.90;;;;;;5034533;28;20033;-80
2021/12/23 08:09:22;;;;;;;48.83;28.10;;;2.10;99.90;;;;;;5048326;28;20365;-79
2021/12/23 08:11:48;;;;;;;49.60;28.63;;;2.20;99.90;;;;;;5032258;28;20021;-80
2021/12/23 08:14:14;;;;;;;49.50;27.80;;;2.20;99.90;;;;;;5035233;28;20064;-79
2021/12/23 08:16:40;;;;;;;47.43;28.33;;;2.20;99.90;;;;;;5020523;28;20052;-80
2021/12/23 08:19:06;;;;;;;49.60;28.20;;;2.20;99.90;;;;;;5038059;28;20030;-80
2021/12/23 08:21:31;;;;;;;52.17;27.33;;;2.20;99.90;;;;;;5035113;28;20017;-80
2021/12/23 08:23:57;;;;;;;54.67;30.80;;;2.30;99.90;;;;;;5035421;28;20044;-80
2021/12/23 08:26:28;;;;;;;55.10;30.83;;;2.30;99.90;;;;;;5042733;28;20076;-80
2021/12/23 08:28:57;;;;;;;50.23;28.50;;;2.30;99.90;;;;;;5025468;28;20422;-81
2021/12/23 08:31:24;;;;;;;57.17;30.57;;;2.30;99.90;;;;;;5038021;28;20029;-80
2021/12/23 08:33:50;;;;;;;50.90;27.77;;;2.30;99.90;;;;;;5037658;28;20029;-80
2021/12/23 08:36:16;;;;;;;49.20;27.87;;;2.30;99.90;;;;;;5047378;28;20514;-80
2021/12/23 08:38:43;;;;;;;47.17;27.27;;;2.30;99.90;;;;;;5048596;28;20467;-81
2021/12/23 08:41:09;;;;;;;47.67;27.53;;;2.40;99.90;;;;;;5021731;28;20054;-80
2021/12/23 08:43:35;;;;;;;52.47;27.47;;;2.30;99.90;;;;;;5022349;28;20391;-80
2021/12/23 08:46:01;;;;;;;50.37;26.83;;;2.40;99.90;;;;;;5014796;28;20644;-80
2021/12/23 08:48:28;;;;;;;44.93;25.90;;;2.40;99.90;;;;;;5013750;28;19970;-80
2021/12/23 08:50:56;;;;;;;43.90;26.00;;;2.40;99.90;;;;;;5022134;28;20018;-80
2021/12/23 08:53:27;;;;;;;45.20;26.30;;;2.40;99.90;;;;;;5019530;28;20026;-80
2021/12/23 08:55:56;;;;;;;44.87;24.57;;;2.40;99.90;;;;;;5027407;28;20021;-81
2021/12/23 08:58:24;;;;;;;47.83;25.00;;;2.50;99.90;;;;;;5023826;28;20371;-73
2021/12/23 09:00:49;;;;;;;42.10;24.43;;;2.50;99.90;;;;;;5022663;28;20518;-73
2021/12/23 09:03:15;;;;;;;42.60;24.67;;;2.50;99.90;;;;;;5026245;28;20102;-73
2021/12/23 09:05:42;;;;;;;42.87;24.03;;;2.60;99.90;;;;;;5015943;28;20024;-73
2021/12/23 09:08:09;;;;;;;42.13;23.70;;;2.60;99.90;;;;;;5017402;28;20041;-73
2021/12/23 09:10:36;;;;;;;37.43;22.30;;;2.70;99.90;;;;;;5012974;28;20368;-73
2021/12/23 09:13:03;;;;;;;39.60;22.93;;;2.70;99.90;;;;;;5024814;28;20387;-73
2021/12/23 09:15:29;;;;;;;39.90;23.37;;;2.70;99.90;;;;;;5023371;28;20029;-73
2021/12/23 09:17:55;;;;;;;39.53;22.63;;;2.80;99.90;;;;;;5018640;28;20034;-73
2021/12/23 09:20:22;;;;;;;42.27;24.37;;;2.80;99.90;;;;;;5026044;28;20037;-73
2021/12/23 09:22:49;;;;;;;41.07;24.23;;;2.90;99.90;;;;;;5027407;28;20026;-73
2021/12/23 09:25:30;;;;;;;47.97;26.20;;;2.90;99.90;;;;;;5025905;28;20045;-73
2021/12/23 09:33:20;;;;;;;47.07;27.77;;;2.90;99.90;;;;;;5030894;28;20033;-73
2021/12/23 09:35:46;;;;;;;59.53;31.27;;;3.00;99.90;;;;;;5026575;28;20039;-73
2021/12/23 09:38:13;;;;;;;54.70;30.13;;;3.00;99.90;;;;;;5012001;28;20080;-73
2021/12/23 09:40:40;;;;;;;55.00;31.37;;;3.00;99.90;;;;;;5023053;28;20055;-73
2021/12/23 09:43:10;;;;;;;56.40;32.73;;;3.00;99.90;;;;;;5017471;28;20084;-74
2021/12/23 09:45:38;;;;;;;54.73;32.60;;;3.00;99.90;;;;;;5028992;28;20029;-73
2021/12/23 09:48:05;;;;;;;59.57;32.90;;;3.00;99.90;;;;;;5018396;28;20376;-73
2021/12/23 09:50:36;;;;;;;57.33;33.00;;;3.10;99.90;;;;;;5022272;28;20511;-73
2021/12/23 09:53:03;;;;;;;51.33;31.30;;;3.10;99.90;;;;;;5022362;28;20022;-73
2021/12/23 09:55:30;;;;;;;49.67;31.00;;;3.10;99.90;;;;;;5029700;28;20025;-73
2021/12/23 09:57:58;;;;;;;54.97;30.93;;;3.10;99.90;;;;;;5015727;28;20483;-73
2021/12/23 10:00:27;;;;;;;53.83;31.20;;;3.10;99.90;;;;;;5017933;28;20022;-73
2021/12/23 10:02:53;;;;;;;51.23;28.47;;;3.20;99.90;;;;;;5020991;28;20037;-73
2021/12/23 10:05:22;;;;;;;46.43;26.93;;;3.20;99.90;;;;;;5021000;28;20026;-74
2021/12/23 10:07:49;;;;;;;45.20;26.30;;;3.30;99.90;;;;;;5028097;28;20371;-73
2021/12/23 10:10:37;;;;;;;46.97;26.47;;;3.30;99.90;;;;;;5028609;28;20407;-73
2021/12/23 10:26:58;;;;;;;47.70;28.00;;;3.30;99.90;;;;;;5026057;28;20021;-73
2021/12/23 10:33:31;;;;;;;50.50;27.27;;;3.50;99.90;;;;;;5019978;28;20021;-73
2021/12/23 10:38:50;;;;;;;47.03;27.97;;;3.50;99.90;;;;;;5025402;28;20040;-73
2021/12/23 10:41:21;;;;;;;44.87;27.27;;;3.50;99.90;;;;;;5033545;28;20056;-73
2021/12/23 10:43:53;;;;;;;44.83;27.33;;;3.60;99.90;;;;;;5019997;28;20021;-73
2021/12/23 10:46:26;;;;;;;44.17;27.42;;;3.60;99.90;;;;;;5040954;28;20025;-73
2021/12/23 10:52:04;;;;;;;39.77;23.73;;;3.60;99.90;;;;;;5032680;28;20053;-80
2021/12/23 11:00:30;;;;;;;43.60;25.37;;;3.80;99.90;;;;;;5049060;28;20059;-80
2021/12/23 11:03:07;;;;;;;40.63;25.53;;;3.90;99.90;;;;;;5037955;28;20045;-79
2021/12/23 11:05:39;;;;;;;42.87;26.27;;;4.00;99.90;;;;;;5045760;28;20078;-80
2021/12/23 11:43:57;;;;;;;43.30;25.83;;;4.80;99.90;;;;;;5043310;28;20033;-80
2021/12/23 11:46:42;;;;;;;45.00;25.50;;;4.90;99.90;;;;;;5040367;28;20022;-80
2021/12/23 11:49:11;;;;;;;47.90;27.40;;;5.00;99.90;;;;;;5044727;28;20017;-79
2021/12/23 11:54:06;;;;;;;54.38;29.48;;;4.90;99.90;;;;;;5050655;28;20108;-79
2021/12/23 11:56:38;;;;;;;51.80;29.73;;;4.90;99.90;;;;;;5043433;28;20105;-80
2021/12/23 11:59:05;;;;;;;54.53;29.45;;;5.00;99.90;;;;;;5029412;28;20026;-80
2021/12/23 12:01:40;;;;;;;52.75;28.83;;;4.90;99.90;;;;;;5041634;28;20100;-80
2021/12/23 12:04:09;;;;;;;53.67;30.08;;;4.90;99.90;;;;;;5040736;28;20112;-80
2021/12/23 12:06:50;;;;;;;50.88;27.92;;;4.90;99.90;;;;;;5026267;28;20444;-80
2021/12/23 12:09:22;;;;;;;52.42;29.75;;;5.00;99.90;;;;;;5043541;28;20029;-80
2021/12/23 12:12:02;;;;;;;;;;;4.90;99.90;;;;;;5049879;28;20035;-79
2021/12/23 12:14:34;;;;;;;45.63;28.38;;;4.90;99.90;;;;;;5017703;28;19912;-79
2021/12/23 12:17:18;;;;;;;;;;;4.90;99.90;;;;;;5023246;28;20102;-79
2021/12/23 12:20:15;;;;;;;53.35;29.08;;;4.90;99.90;;;;;;5039768;28;20317;-78
2021/12/23 12:22:55;;;;;;;54.30;30.33;;;4.90;99.90;;;;;;5018159;28;20037;-79
2021/12/23 12:25:23;;;;;;;56.53;31.70;;;4.90;99.90;;;;;;5018640;28;20111;-80
2021/12/23 12:28:13;;;;;;;59.53;33.00;;;4.90;99.90;;;;;;5034713;28;20037;-80
2021/12/23 12:30:41;;;;;;;63.55;30.70;;;4.90;99.90;;;;;;5027790;28;20037;-80
2021/12/23 12:33:19;;;;;;;55.80;30.35;;;4.90;99.90;;;;;;5034491;28;20083;-81
2021/12/23 12:35:50;;;;;;;52.17;30.48;;;5.00;99.90;;;;;;5034822;28;20068;-81
2021/12/23 12:38:25;;;;;;;48.90;28.40;;;5.00;99.90;;;;;;5035158;28;20026;-80
2021/12/23 12:40:58;;;;;;;51.67;28.98;;;4.90;99.90;;;;;;5034281;28;20037;-80
2021/12/23 12:43:53;;;;;;;48.45;27.95;;;4.90;99.90;;;;;;5026882;28;20033;-80
2021/12/23 12:46:34;;;;;;;51.13;29.60;;;4.90;99.90;;;;;;5026576;28;20453;-80
2021/12/23 12:49:08;;;;;;;54.28;29.38;;;4.80;99.90;;;;;;5019620;28;20034;-79
2021/12/23 12:51:40;;;;;;;55.47;29.95;;;4.90;99.90;;;;;;5022628;28;20482;-80
2021/12/23 12:54:14;;;;;;;56.20;30.73;;;4.90;99.90;;;;;;5039826;28;20053;-80
2021/12/23 12:56:55;;;;;;;55.70;28.80;;;4.90;99.90;;;;;;5048012;28;20012;-80
2021/12/23 12:59:28;;;;;;;53.67;29.63;;;5.00;99.90;;;;;;5039235;28;20034;-80
2021/12/23 13:01:55;;;;;;;51.42;28.33;;;5.00;99.90;;;;;;5022017;28;20029;-80
2021/12/23 13:04:33;;;;;;;50.10;28.85;;;5.10;99.90;;;;;;5016751;28;20486;-80
2021/12/23 13:07:22;;;;;;;55.50;31.98;;;5.10;99.90;;;;;;5025426;28;20485;-80
2021/12/23 13:10:05;;;;;;;51.45;29.65;;;5.10;99.90;;;;;;5046089;28;20359;-80
2021/12/23 13:12:45;;;;;;;57.88;30.92;;;5.10;99.90;;;;;;5030875;28;20051;-80
2021/12/23 13:15:18;;;;;;;56.45;30.63;;;5.20;99.90;;;;;;5034507;28;20430;-80
2021/12/23 13:17:47;;;;;;;58.72;31.50;;;5.20;99.90;;;;;;5022096;28;20037;-80
2021/12/23 13:20:15;;;;;;;59.08;32.85;;;5.20;99.90;;;;;;5040163;28;20045;-80
2021/12/23 13:22:43;;;;;;;55.88;31.55;;;5.10;99.90;;;;;;5034104;28;20087;-79
2021/12/23 13:25:09;;;;;;;55.38;31.77;;;5.20;99.90;;;;;;5039934;28;20410;-80
2021/12/23 13:27:40;;;;;;;55.33;31.08;;;5.10;99.90;;;;;;5037874;28;20033;-73
2021/12/23 13:30:11;;;;;;;49.35;30.20;;;5.20;99.90;;;;;;5044921;28;20061;-80
2021/12/23 13:32:38;;;;;;;54.75;30.77;;;5.20;99.90;;;;;;5040824;28;20021;-79
2021/12/23 13:35:15;;;;;;;58.55;32.08;;;5.20;99.90;;;;;;5030197;28;20024;-80
2021/12/23 13:37:45;;;;;;;54.15;31.98;;;5.20;99.90;;;;;;5045262;28;20040;-80
2021/12/23 13:40:24;;;;;;;55.70;30.60;;;5.20;99.90;;;;;;5039266;28;20434;-80
2021/12/23 13:42:50;;;;;;;55.22;31.38;;;5.20;99.90;;;;;;5043476;28;20075;-79
2021/12/23 13:45:16;;;;;;;57.13;33.15;;;5.30;99.90;;;;;;5046069;28;20490;-80
2021/12/23 13:47:41;;;;;;;56.70;30.52;;;5.30;99.90;;;;;;5025244;28;20021;-79
2021/12/23 13:50:08;;;;;;;60.38;31.92;;;5.30;99.90;;;;;;5050158;28;20020;-73
2021/12/23 13:52:40;;;;;;;57.17;30.38;;;5.20;99.90;;;;;;5042367;28;20096;-74
2021/12/23 13:55:09;;;;;;;56.53;32.97;;;5.20;99.90;;;;;;5045842;28;20490;-73
2021/12/23 13:57:38;;;;;;;54.53;31.80;;;5.20;99.90;;;;;;5029610;28;20029;-73
2021/12/23 14:00:13;;;;;;;61.13;33.25;;;5.10;99.90;;;;;;5049966;28;20022;-73
2021/12/23 14:02:40;;;;;;;58.65;33.13;;;5.10;99.90;;;;;;5025362;28;20028;-73